CheckWX is a tool to help pilots better visualize weather data.  It is not intended as a substitute for an official pre-flight weather briefing.

04:52:54 UTC

KHOP METAR
Campbell AAF (Fort Campbell) Airport
Fort Campbell/Hopkinsville, Kentucky, USA
Current

12 mins ago

KHOP 140441Z AUTO 29005KT 1 1/2SM BR OVC002 07/07 A2978 RMK AO2 VIS 1 1/2V2 1/2 SLP088
Observed
Dec-14 @ 04:41 UTC
Wind
  • 290° at 5 KTS
Visibility
1 1/2 SM
Flight Rules
LIFR
Conditions
Mist
Cloud Levels
  • Overcast at 200' AGL
Temperature
C / 45°F
Dewpoint
C / 45°F
Humidity
100%
Altimeter
29.78" Hg
Pressure
1008.42 hPa
Previous

57 mins ago

KHOP 140356Z 29005KT 6SM BR OVC002 07/07 A2978 RMK AO2A SLP088 T00690069
Observed
Dec-14 @ 03:56 UTC
Wind
  • 290° at 5 KTS
Visibility
6 SM
Flight Rules
LIFR
Conditions
Mist
Cloud Levels
  • Overcast at 200' AGL
Temperature
C / 45°F
Dewpoint
C / 45°F
Humidity
100%
Altimeter
29.78" Hg
Pressure
1008.42 hPa
Previous

2 hours ago

KHOP 140256Z 00000KT 5SM BR BKN002 OVC006 07/07 A2980 RMK AO2A DZB0151E21 CIG 002V006 BKN V SCT SLP095 P0001 60005 T00690069 57009
Observed
Dec-14 @ 02:56 UTC
Visibility
5 SM
Flight Rules
LIFR
Conditions
Mist
Cloud Levels
  • Broken at 200' AGL
  • Overcast at 600' AGL
Temperature
C / 45°F
Dewpoint
C / 45°F
Humidity
100%
Altimeter
29.8" Hg
Pressure
1009.12 hPa
Current Rain
0.01"